sensor_id;sensor_type;location;lat;lon;timestamp;P1;durP1;ratioP1;P2;durP2;ratioP2
20456;SDS011;10387;51.102;6.848;2023-06-01T00:00:46;6.67;;;4.10;;
20456;SDS011;10387;51.102;6.848;2023-06-01T00:03:13;6.20;;;4.13;;
20456;SDS011;10387;51.102;6.848;2023-06-01T00:05:39;6.47;;;4.13;;
20456;SDS011;10387;51.102;6.848;2023-06-01T00:08:05;5.93;;;4.30;;
20456;SDS011;10387;51.102;6.848;2023-06-01T00:10:32;7.60;;;4.47;;
20456;SDS011;10387;51.102;6.848;2023-06-01T00:12:58;7.40;;;4.10;;
20456;SDS011;10387;51.102;6.848;2023-06-01T00:15:24;5.57;;;3.87;;
20456;SDS011;10387;51.102;6.848;2023-06-01T00:17:50;6.70;;;4.17;;
20456;SDS011;10387;51.102;6.848;2023-06-01T00:20:17;6.40;;;4.30;;
20456;SDS011;10387;51.102;6.848;2023-06-01T00:22:43;7.07;;;4.50;;
20456;SDS011;10387;51.102;6.848;2023-06-01T00:25:11;7.60;;;4.83;;
20456;SDS011;10387;51.102;6.848;2023-06-01T00:27:37;6.13;;;3.67;;
20456;SDS011;10387;51.102;6.848;2023-06-01T00:30:03;7.07;;;3.67;;
20456;SDS011;10387;51.102;6.848;2023-06-01T00:32:30;9.03;;;4.63;;
20456;SDS011;10387;51.102;6.848;2023-06-01T00:34:56;5.90;;;4.10;;
20456;SDS011;10387;51.102;6.848;2023-06-01T00:37:22;5.97;;;3.60;;
20456;SDS011;10387;51.102;6.848;2023-06-01T00:39:48;7.43;;;4.00;;
20456;SDS011;10387;51.102;6.848;2023-06-01T00:42:14;4.93;;;3.53;;
20456;SDS011;10387;51.102;6.848;2023-06-01T00:44:40;4.00;;;3.60;;
20456;SDS011;10387;51.102;6.848;2023-06-01T00:47:06;5.53;;;3.87;;
20456;SDS011;10387;51.102;6.848;2023-06-01T00:49:33;5.03;;;3.70;;
20456;SDS011;10387;51.102;6.848;2023-06-01T00:52:00;5.03;;;3.77;;
20456;SDS011;10387;51.102;6.848;2023-06-01T00:54:26;6.17;;;4.03;;
20456;SDS011;10387;51.102;6.848;2023-06-01T00:56:52;6.13;;;3.93;;
20456;SDS011;10387;51.102;6.848;2023-06-01T00:59:18;5.77;;;3.93;;
20456;SDS011;10387;51.102;6.848;2023-06-01T01:01:45;5.87;;;3.90;;
20456;SDS011;10387;51.102;6.848;2023-06-01T01:04:11;5.13;;;3.80;;
20456;SDS011;10387;51.102;6.848;2023-06-01T01:11:34;7.40;;;4.23;;
20456;SDS011;10387;51.102;6.848;2023-06-01T01:14:05;5.67;;;3.43;;
20456;SDS011;10387;51.102;6.848;2023-06-01T01:19:28;4.67;;;3.47;;
20456;SDS011;10387;51.102;6.848;2023-06-01T01:22:03;4.93;;;3.97;;
20456;SDS011;10387;51.102;6.848;2023-06-01T01:29:34;6.73;;;4.13;;
20456;SDS011;10387;51.102;6.848;2023-06-01T01:32:00;6.43;;;3.90;;
20456;SDS011;10387;51.102;6.848;2023-06-01T01:34:29;5.63;;;4.10;;
20456;SDS011;10387;51.102;6.848;2023-06-01T01:36:56;4.93;;;3.73;;
20456;SDS011;10387;51.102;6.848;2023-06-01T01:39:22;3.90;;;3.47;;
20456;SDS011;10387;51.102;6.848;2023-06-01T01:41:48;7.00;;;4.17;;
20456;SDS011;10387;51.102;6.848;2023-06-01T01:44:14;5.13;;;3.40;;
20456;SDS011;10387;51.102;6.848;2023-06-01T01:47:01;6.27;;;3.80;;
20456;SDS011;10387;51.102;6.848;2023-06-01T01:49:37;6.00;;;3.63;;
20456;SDS011;10387;51.102;6.848;2023-06-01T01:52:15;6.43;;;4.27;;
20456;SDS011;10387;51.102;6.848;2023-06-01T01:54:42;6.80;;;4.03;;
20456;SDS011;10387;51.102;6.848;2023-06-01T01:57:09;5.63;;;4.20;;
20456;SDS011;10387;51.102;6.848;2023-06-01T01:59:35;6.73;;;3.83;;
20456;SDS011;10387;51.102;6.848;2023-06-01T02:02:01;4.80;;;3.77;;
20456;SDS011;10387;51.102;6.848;2023-06-01T02:04:28;6.03;;;3.93;;
20456;SDS011;10387;51.102;6.848;2023-06-01T02:06:56;5.27;;;4.47;;
20456;SDS011;10387;51.102;6.848;2023-06-01T02:09:23;5.53;;;4.47;;
20456;SDS011;10387;51.102;6.848;2023-06-01T02:11:50;7.03;;;4.60;;
20456;SDS011;10387;51.102;6.848;2023-06-01T02:14:17;5.23;;;3.90;;
20456;SDS011;10387;51.102;6.848;2023-06-01T02:16:43;7.50;;;4.60;;
20456;SDS011;10387;51.102;6.848;2023-06-01T02:19:10;9.57;;;5.13;;
20456;SDS011;10387;51.102;6.848;2023-06-01T02:21:36;10.13;;;4.47;;
20456;SDS011;10387;51.102;6.848;2023-06-01T02:24:04;8.27;;;4.80;;
20456;SDS011;10387;51.102;6.848;2023-06-01T02:26:32;7.57;;;4.87;;
20456;SDS011;10387;51.102;6.848;2023-06-01T02:28:58;7.67;;;4.90;;
20456;SDS011;10387;51.102;6.848;2023-06-01T02:31:27;8.57;;;5.30;;
20456;SDS011;10387;51.102;6.848;2023-06-01T02:33:53;7.97;;;5.27;;
20456;SDS011;10387;51.102;6.848;2023-06-01T02:36:19;8.43;;;5.00;;
20456;SDS011;10387;51.102;6.848;2023-06-01T02:38:46;6.80;;;4.83;;
20456;SDS011;10387;51.102;6.848;2023-06-01T02:41:12;8.80;;;5.10;;
20456;SDS011;10387;51.102;6.848;2023-06-01T02:43:39;8.00;;;5.50;;
20456;SDS011;10387;51.102;6.848;2023-06-01T02:46:05;10.30;;;5.60;;
20456;SDS011;10387;51.102;6.848;2023-06-01T02:48:35;10.63;;;5.80;;
20456;SDS011;10387;51.102;6.848;2023-06-01T02:51:01;10.20;;;6.37;;
20456;SDS011;10387;51.102;6.848;2023-06-01T02:53:27;10.37;;;6.63;;
20456;SDS011;10387;51.102;6.848;2023-06-01T02:55:54;13.07;;;7.70;;
20456;SDS011;10387;51.102;6.848;2023-06-01T02:58:39;14.83;;;7.73;;
20456;SDS011;10387;51.102;6.848;2023-06-01T03:01:15;11.13;;;7.53;;
20456;SDS011;10387;51.102;6.848;2023-06-01T03:03:42;12.87;;;7.43;;
20456;SDS011;10387;51.102;6.848;2023-06-01T03:06:09;14.47;;;8.00;;
20456;SDS011;10387;51.102;6.848;2023-06-01T03:09:10;10.10;;;7.30;;
20456;SDS011;10387;51.102;6.848;2023-06-01T03:11:56;12.73;;;8.13;;
20456;SDS011;10387;51.102;6.848;2023-06-01T03:14:22;12.60;;;8.17;;
20456;SDS011;10387;51.102;6.848;2023-06-01T03:16:49;14.47;;;8.70;;
20456;SDS011;10387;51.102;6.848;2023-06-01T03:19:20;13.20;;;8.47;;
20456;SDS011;10387;51.102;6.848;2023-06-01T03:21:50;12.03;;;8.63;;
20456;SDS011;10387;51.102;6.848;2023-06-01T03:24:19;12.33;;;9.20;;
20456;SDS011;10387;51.102;6.848;2023-06-01T03:26:48;15.30;;;9.30;;
20456;SDS011;10387;51.102;6.848;2023-06-01T03:29:15;15.73;;;8.97;;
20456;SDS011;10387;51.102;6.848;2023-06-01T03:31:42;15.63;;;10.03;;
20456;SDS011;10387;51.102;6.848;2023-06-01T03:34:08;16.07;;;10.00;;
20456;SDS011;10387;51.102;6.848;2023-06-01T03:36:35;16.30;;;10.57;;
20456;SDS011;10387;51.102;6.848;2023-06-01T03:39:02;16.50;;;10.77;;
20456;SDS011;10387;51.102;6.848;2023-06-01T03:41:34;18.67;;;10.13;;
20456;SDS011;10387;51.102;6.848;2023-06-01T03:44:01;21.33;;;11.27;;
20456;SDS011;10387;51.102;6.848;2023-06-01T03:46:27;17.10;;;10.57;;
20456;SDS011;10387;51.102;6.848;2023-06-01T03:48:53;15.33;;;10.80;;
20456;SDS011;10387;51.102;6.848;2023-06-01T03:51:20;17.23;;;11.00;;
20456;SDS011;10387;51.102;6.848;2023-06-01T03:53:46;22.47;;;12.23;;
20456;SDS011;10387;51.102;6.848;2023-06-01T03:56:12;17.90;;;10.90;;
20456;SDS011;10387;51.102;6.848;2023-06-01T03:58:40;18.60;;;10.90;;
20456;SDS011;10387;51.102;6.848;2023-06-01T04:01:07;18.90;;;11.17;;
20456;SDS011;10387;51.102;6.848;2023-06-01T04:03:35;19.27;;;12.13;;
20456;SDS011;10387;51.102;6.848;2023-06-01T04:06:02;20.60;;;11.80;;
20456;SDS011;10387;51.102;6.848;2023-06-01T04:08:29;20.47;;;11.90;;
20456;SDS011;10387;51.102;6.848;2023-06-01T04:10:55;20.57;;;12.80;;
20456;SDS011;10387;51.102;6.848;2023-06-01T04:13:21;21.03;;;13.23;;
20456;SDS011;10387;51.102;6.848;2023-06-01T04:15:47;21.10;;;13.33;;
20456;SDS011;10387;51.102;6.848;2023-06-01T04:18:18;23.67;;;13.60;;
20456;SDS011;10387;51.102;6.848;2023-06-01T04:21:04;23.87;;;13.70;;
20456;SDS011;10387;51.102;6.848;2023-06-01T04:23:32;21.67;;;14.77;;
20456;SDS011;10387;51.102;6.848;2023-06-01T04:25:59;26.17;;;15.73;;
20456;SDS011;10387;51.102;6.848;2023-06-01T04:28:26;25.97;;;17.03;;
20456;SDS011;10387;51.102;6.848;2023-06-01T04:30:53;28.97;;;17.27;;
20456;SDS011;10387;51.102;6.848;2023-06-01T04:33:20;28.53;;;16.40;;
20456;SDS011;10387;51.102;6.848;2023-06-01T04:35:48;30.10;;;17.27;;
20456;SDS011;10387;51.102;6.848;2023-06-01T04:38:14;30.07;;;18.07;;
20456;SDS011;10387;51.102;6.848;2023-06-01T04:40:42;30.10;;;18.53;;
20456;SDS011;10387;51.102;6.848;2023-06-01T04:43:11;31.03;;;18.80;;
20456;SDS011;10387;51.102;6.848;2023-06-01T04:45:38;33.00;;;18.83;;
20456;SDS011;10387;51.102;6.848;2023-06-01T04:48:08;34.37;;;20.67;;
20456;SDS011;10387;51.102;6.848;2023-06-01T04:50:40;36.27;;;20.77;;
20456;SDS011;10387;51.102;6.848;2023-06-01T04:53:07;35.97;;;21.43;;
20456;SDS011;10387;51.102;6.848;2023-06-01T04:55:33;35.27;;;21.53;;
20456;SDS011;10387;51.102;6.848;2023-06-01T04:57:59;38.03;;;22.53;;
20456;SDS011;10387;51.102;6.848;2023-06-01T05:00:25;35.10;;;22.27;;
20456;SDS011;10387;51.102;6.848;2023-06-01T05:02:51;37.57;;;22.87;;
20456;SDS011;10387;51.102;6.848;2023-06-01T05:05:18;35.57;;;22.37;;
20456;SDS011;10387;51.102;6.848;2023-06-01T05:07:46;34.70;;;22.53;;
20456;SDS011;10387;51.102;6.848;2023-06-01T05:10:12;38.47;;;23.63;;
20456;SDS011;10387;51.102;6.848;2023-06-01T05:12:44;36.20;;;22.40;;
20456;SDS011;10387;51.102;6.848;2023-06-01T05:15:12;40.90;;;22.97;;
20456;SDS011;10387;51.102;6.848;2023-06-01T05:17:39;35.60;;;21.40;;
20456;SDS011;10387;51.102;6.848;2023-06-01T05:20:09;30.30;;;19.23;;
20456;SDS011;10387;51.102;6.848;2023-06-01T05:22:37;30.80;;;19.47;;
20456;SDS011;10387;51.102;6.848;2023-06-01T05:25:04;28.03;;;18.80;;
20456;SDS011;10387;51.102;6.848;2023-06-01T05:27:33;30.93;;;19.67;;
20456;SDS011;10387;51.102;6.848;2023-06-01T05:30:00;34.57;;;20.00;;
20456;SDS011;10387;51.102;6.848;2023-06-01T05:32:27;32.07;;;19.33;;
20456;SDS011;10387;51.102;6.848;2023-06-01T05:34:59;28.90;;;18.73;;
20456;SDS011;10387;51.102;6.848;2023-06-01T05:37:26;31.37;;;18.47;;
20456;SDS011;10387;51.102;6.848;2023-06-01T05:39:52;29.77;;;18.23;;
20456;SDS011;10387;51.102;6.848;2023-06-01T05:42:19;25.07;;;16.57;;
20456;SDS011;10387;51.102;6.848;2023-06-01T05:44:45;27.47;;;17.67;;
20456;SDS011;10387;51.102;6.848;2023-06-01T05:47:11;33.80;;;18.90;;
20456;SDS011;10387;51.102;6.848;2023-06-01T05:49:37;31.40;;;18.90;;
20456;SDS011;10387;51.102;6.848;2023-06-01T05:52:03;29.73;;;18.20;;
20456;SDS011;10387;51.102;6.848;2023-06-01T05:54:31;29.03;;;18.77;;
20456;SDS011;10387;51.102;6.848;2023-06-01T05:56:57;29.67;;;17.80;;
20456;SDS011;10387;51.102;6.848;2023-06-01T05:59:23;28.23;;;18.13;;
20456;SDS011;10387;51.102;6.848;2023-06-01T06:01:49;28.70;;;18.53;;
20456;SDS011;10387;51.102;6.848;2023-06-01T06:04:16;30.20;;;18.70;;
20456;SDS011;10387;51.102;6.848;2023-06-01T06:06:42;27.53;;;18.33;;
20456;SDS011;10387;51.102;6.848;2023-06-01T06:09:08;31.67;;;19.93;;
20456;SDS011;10387;51.102;6.848;2023-06-01T06:11:35;30.80;;;18.30;;
20456;SDS011;10387;51.102;6.848;2023-06-01T06:14:01;28.73;;;17.23;;
20456;SDS011;10387;51.102;6.848;2023-06-01T06:16:27;26.83;;;17.73;;
20456;SDS011;10387;51.102;6.848;2023-06-01T06:18:53;27.87;;;17.73;;
20456;SDS011;10387;51.102;6.848;2023-06-01T06:21:19;27.03;;;18.23;;
20456;SDS011;10387;51.102;6.848;2023-06-01T06:23:45;29.93;;;17.90;;
20456;SDS011;10387;51.102;6.848;2023-06-01T06:26:12;27.93;;;18.43;;
20456;SDS011;10387;51.102;6.848;2023-06-01T06:28:38;32.17;;;18.07;;
20456;SDS011;10387;51.102;6.848;2023-06-01T06:31:05;26.30;;;17.27;;
20456;SDS011;10387;51.102;6.848;2023-06-01T06:33:31;32.17;;;19.27;;
20456;SDS011;10387;51.102;6.848;2023-06-01T06:35:57;27.10;;;18.03;;
20456;SDS011;10387;51.102;6.848;2023-06-01T06:38:23;26.90;;;17.90;;
20456;SDS011;10387;51.102;6.848;2023-06-01T06:40:49;27.07;;;16.97;;
20456;SDS011;10387;51.102;6.848;2023-06-01T06:43:16;28.77;;;18.67;;
20456;SDS011;10387;51.102;6.848;2023-06-01T06:45:44;27.93;;;17.57;;
20456;SDS011;10387;51.102;6.848;2023-06-01T06:48:10;25.63;;;17.83;;
20456;SDS011;10387;51.102;6.848;2023-06-01T06:50:36;31.40;;;19.33;;
20456;SDS011;10387;51.102;6.848;2023-06-01T06:53:03;30.03;;;18.80;;
20456;SDS011;10387;51.102;6.848;2023-06-01T06:55:30;28.73;;;18.00;;
20456;SDS011;10387;51.102;6.848;2023-06-01T06:57:56;27.97;;;18.27;;
20456;SDS011;10387;51.102;6.848;2023-06-01T07:00:22;28.13;;;17.93;;
20456;SDS011;10387;51.102;6.848;2023-06-01T07:02:48;31.83;;;18.63;;
20456;SDS011;10387;51.102;6.848;2023-06-01T07:05:14;33.63;;;20.00;;
20456;SDS011;10387;51.102;6.848;2023-06-01T07:07:40;29.83;;;18.57;;
20456;SDS011;10387;51.102;6.848;2023-06-01T07:10:07;24.70;;;16.67;;
20456;SDS011;10387;51.102;6.848;2023-06-01T07:12:33;26.20;;;17.23;;
20456;SDS011;10387;51.102;6.848;2023-06-01T07:14:59;30.47;;;17.97;;
20456;SDS011;10387;51.102;6.848;2023-06-01T07:17:25;25.73;;;17.23;;
20456;SDS011;10387;51.102;6.848;2023-06-01T07:19:51;27.00;;;17.93;;
20456;SDS011;10387;51.102;6.848;2023-06-01T07:22:18;29.13;;;18.33;;
20456;SDS011;10387;51.102;6.848;2023-06-01T07:24:47;27.13;;;18.00;;
20456;SDS011;10387;51.102;6.848;2023-06-01T07:27:14;28.03;;;18.47;;
20456;SDS011;10387;51.102;6.848;2023-06-01T07:29:40;26.03;;;17.53;;
20456;SDS011;10387;51.102;6.848;2023-06-01T07:32:06;30.13;;;18.67;;
20456;SDS011;10387;51.102;6.848;2023-06-01T07:34:32;26.93;;;18.00;;
20456;SDS011;10387;51.102;6.848;2023-06-01T07:36:58;25.30;;;16.83;;
20456;SDS011;10387;51.102;6.848;2023-06-01T07:39:25;30.40;;;19.13;;
20456;SDS011;10387;51.102;6.848;2023-06-01T07:41:51;25.57;;;18.20;;
20456;SDS011;10387;51.102;6.848;2023-06-01T07:44:19;26.70;;;18.43;;
20456;SDS011;10387;51.102;6.848;2023-06-01T07:46:45;33.23;;;19.90;;
20456;SDS011;10387;51.102;6.848;2023-06-01T07:49:12;28.17;;;18.43;;
20456;SDS011;10387;51.102;6.848;2023-06-01T07:51:39;30.33;;;19.67;;
20456;SDS011;10387;51.102;6.848;2023-06-01T07:54:05;29.27;;;18.97;;
20456;SDS011;10387;51.102;6.848;2023-06-01T07:56:33;27.83;;;18.57;;
20456;SDS011;10387;51.102;6.848;2023-06-01T07:58:59;27.07;;;17.63;;
20456;SDS011;10387;51.102;6.848;2023-06-01T08:01:25;27.37;;;18.47;;
20456;SDS011;10387;51.102;6.848;2023-06-01T08:03:51;25.43;;;17.50;;
20456;SDS011;10387;51.102;6.848;2023-06-01T08:06:18;28.73;;;18.73;;
20456;SDS011;10387;51.102;6.848;2023-06-01T08:08:48;25.70;;;17.73;;
20456;SDS011;10387;51.102;6.848;2023-06-01T08:11:15;25.03;;;16.70;;
20456;SDS011;10387;51.102;6.848;2023-06-01T08:13:41;25.57;;;16.13;;
20456;SDS011;10387;51.102;6.848;2023-06-01T08:16:12;24.17;;;16.50;;
20456;SDS011;10387;51.102;6.848;2023-06-01T08:18:38;23.77;;;16.03;;
20456;SDS011;10387;51.102;6.848;2023-06-01T08:21:04;22.17;;;16.27;;
20456;SDS011;10387;51.102;6.848;2023-06-01T08:23:30;23.20;;;16.17;;
20456;SDS011;10387;51.102;6.848;2023-06-01T08:25:57;23.20;;;16.73;;
20456;SDS011;10387;51.102;6.848;2023-06-01T08:28:23;26.90;;;16.70;;
20456;SDS011;10387;51.102;6.848;2023-06-01T08:30:49;22.07;;;15.60;;
20456;SDS011;10387;51.102;6.848;2023-06-01T08:33:15;26.43;;;16.43;;
20456;SDS011;10387;51.102;6.848;2023-06-01T08:35:41;20.40;;;15.23;;
20456;SDS011;10387;51.102;6.848;2023-06-01T08:38:07;20.93;;;15.30;;
20456;SDS011;10387;51.102;6.848;2023-06-01T08:40:33;20.30;;;14.93;;
20456;SDS011;10387;51.102;6.848;2023-06-01T08:43:05;20.97;;;15.07;;
20456;SDS011;10387;51.102;6.848;2023-06-01T08:45:35;22.23;;;15.70;;
20456;SDS011;10387;51.102;6.848;2023-06-01T08:48:02;21.27;;;14.70;;
20456;SDS011;10387;51.102;6.848;2023-06-01T08:50:33;22.33;;;15.60;;
20456;SDS011;10387;51.102;6.848;2023-06-01T08:53:00;20.03;;;14.70;;
20456;SDS011;10387;51.102;6.848;2023-06-01T08:55:27;20.70;;;15.50;;
20456;SDS011;10387;51.102;6.848;2023-06-01T08:57:53;20.80;;;16.03;;
20456;SDS011;10387;51.102;6.848;2023-06-01T09:00:20;22.90;;;16.13;;
20456;SDS011;10387;51.102;6.848;2023-06-01T09:02:46;19.93;;;15.50;;
20456;SDS011;10387;51.102;6.848;2023-06-01T09:05:12;18.87;;;16.23;;
20456;SDS011;10387;51.102;6.848;2023-06-01T09:07:39;23.23;;;15.27;;
20456;SDS011;10387;51.102;6.848;2023-06-01T09:10:06;21.10;;;15.17;;
20456;SDS011;10387;51.102;6.848;2023-06-01T09:12:32;23.50;;;16.80;;
20456;SDS011;10387;51.102;6.848;2023-06-01T09:15:12;18.77;;;15.23;;
20456;SDS011;10387;51.102;6.848;2023-06-01T09:17:41;20.73;;;14.80;;
20456;SDS011;10387;51.102;6.848;2023-06-01T09:20:11;19.53;;;14.70;;
20456;SDS011;10387;51.102;6.848;2023-06-01T09:22:42;21.33;;;15.23;;
20456;SDS011;10387;51.102;6.848;2023-06-01T09:25:08;20.37;;;15.33;;
20456;SDS011;10387;51.102;6.848;2023-06-01T09:27:41;24.20;;;15.47;;
20456;SDS011;10387;51.102;6.848;2023-06-01T09:30:08;18.63;;;14.90;;
20456;SDS011;10387;51.102;6.848;2023-06-01T09:32:35;21.07;;;15.23;;
20456;SDS011;10387;51.102;6.848;2023-06-01T09:35:01;20.90;;;15.23;;
20456;SDS011;10387;51.102;6.848;2023-06-01T09:37:28;21.87;;;15.63;;
20456;SDS011;10387;51.102;6.848;2023-06-01T09:39:54;20.83;;;14.87;;
20456;SDS011;10387;51.102;6.848;2023-06-01T09:42:33;18.77;;;14.80;;
20456;SDS011;10387;51.102;6.848;2023-06-01T09:45:13;22.27;;;16.33;;
20456;SDS011;10387;51.102;6.848;2023-06-01T09:47:41;24.87;;;15.83;;
20456;SDS011;10387;51.102;6.848;2023-06-01T09:50:07;21.73;;;15.73;;
20456;SDS011;10387;51.102;6.848;2023-06-01T09:52:33;22.60;;;15.80;;
20456;SDS011;10387;51.102;6.848;2023-06-01T09:55:05;19.67;;;16.20;;
20456;SDS011;10387;51.102;6.848;2023-06-01T09:57:32;22.17;;;16.77;;
20456;SDS011;10387;51.102;6.848;2023-06-01T09:59:59;19.00;;;16.23;;
20456;SDS011;10387;51.102;6.848;2023-06-01T10:02:27;27.90;;;17.80;;
20456;SDS011;10387;51.102;6.848;2023-06-01T10:04:56;25.97;;;18.83;;
20456;SDS011;10387;51.102;6.848;2023-06-01T10:07:26;20.23;;;15.10;;
20456;SDS011;10387;51.102;6.848;2023-06-01T10:09:59;19.80;;;15.60;;
20456;SDS011;10387;51.102;6.848;2023-06-01T10:12:27;20.67;;;14.73;;
20456;SDS011;10387;51.102;6.848;2023-06-01T10:14:54;22.40;;;15.73;;
20456;SDS011;10387;51.102;6.848;2023-06-01T10:17:23;20.97;;;15.13;;
20456;SDS011;10387;51.102;6.848;2023-06-01T10:19:50;21.27;;;15.23;;
20456;SDS011;10387;51.102;6.848;2023-06-01T10:22:17;21.00;;;16.17;;
20456;SDS011;10387;51.102;6.848;2023-06-01T10:24:45;22.93;;;17.83;;
20456;SDS011;10387;51.102;6.848;2023-06-01T10:27:32;24.20;;;17.20;;
20456;SDS011;10387;51.102;6.848;2023-06-01T10:29:59;26.03;;;19.90;;
20456;SDS011;10387;51.102;6.848;2023-06-01T10:35:04;25.10;;;18.87;;
20456;SDS011;10387;51.102;6.848;2023-06-01T10:37:30;26.13;;;19.10;;
20456;SDS011;10387;51.102;6.848;2023-06-01T10:42:48;24.97;;;17.87;;
20456;SDS011;10387;51.102;6.848;2023-06-01T10:48:06;28.30;;;20.37;;
20456;SDS011;10387;51.102;6.848;2023-06-01T10:50:33;31.53;;;21.77;;
20456;SDS011;10387;51.102;6.848;2023-06-01T10:55:45;30.97;;;21.63;;
20456;SDS011;10387;51.102;6.848;2023-06-01T10:58:21;32.13;;;23.83;;
20456;SDS011;10387;51.102;6.848;2023-06-01T11:00:49;33.50;;;22.57;;
20456;SDS011;10387;51.102;6.848;2023-06-01T11:03:15;29.33;;;20.83;;
20456;SDS011;10387;51.102;6.848;2023-06-01T11:05:46;28.03;;;20.70;;
20456;SDS011;10387;51.102;6.848;2023-06-01T11:13:14;33.47;;;22.20;;
20456;SDS011;10387;51.102;6.848;2023-06-01T11:16:28;29.57;;;21.43;;
20456;SDS011;10387;51.102;6.848;2023-06-01T11:21:11;25.40;;;18.43;;
20456;SDS011;10387;51.102;6.848;2023-06-01T11:23:41;25.40;;;18.70;;
20456;SDS011;10387;51.102;6.848;2023-06-01T11:26:07;25.80;;;18.90;;
20456;SDS011;10387;51.102;6.848;2023-06-01T11:28:34;28.10;;;19.60;;
20456;SDS011;10387;51.102;6.848;2023-06-01T11:31:01;26.40;;;18.77;;
20456;SDS011;10387;51.102;6.848;2023-06-01T11:33:28;26.90;;;19.73;;
20456;SDS011;10387;51.102;6.848;2023-06-01T11:36:01;28.30;;;20.30;;
20456;SDS011;10387;51.102;6.848;2023-06-01T11:38:40;26.87;;;19.60;;
20456;SDS011;10387;51.102;6.848;2023-06-01T11:41:07;24.77;;;18.80;;
20456;SDS011;10387;51.102;6.848;2023-06-01T11:43:34;23.53;;;16.30;;
20456;SDS011;10387;51.102;6.848;2023-06-01T11:46:05;20.03;;;14.70;;
20456;SDS011;10387;51.102;6.848;2023-06-01T11:48:31;21.90;;;13.70;;
20456;SDS011;10387;51.102;6.848;2023-06-01T11:50:59;17.57;;;11.97;;
20456;SDS011;10387;51.102;6.848;2023-06-01T11:53:26;20.53;;;14.20;;
20456;SDS011;10387;51.102;6.848;2023-06-01T11:55:55;16.23;;;12.07;;
20456;SDS011;10387;51.102;6.848;2023-06-01T12:00:51;18.90;;;12.30;;
20456;SDS011;10387;51.102;6.848;2023-06-01T12:03:18;16.93;;;11.17;;
20456;SDS011;10387;51.102;6.848;2023-06-01T12:05:44;17.40;;;10.97;;
20456;SDS011;10387;51.102;6.848;2023-06-01T12:08:15;17.30;;;11.00;;
20456;SDS011;10387;51.102;6.848;2023-06-01T12:10:43;16.33;;;10.90;;
20456;SDS011;10387;51.102;6.848;2023-06-01T12:13:10;16.63;;;10.80;;
20456;SDS011;10387;51.102;6.848;2023-06-01T12:15:36;15.80;;;10.17;;
20456;SDS011;10387;51.102;6.848;2023-06-01T12:18:03;15.53;;;10.33;;
20456;SDS011;10387;51.102;6.848;2023-06-01T12:20:30;14.40;;;11.00;;
20456;SDS011;10387;51.102;6.848;2023-06-01T12:22:57;17.30;;;10.20;;
20456;SDS011;10387;51.102;6.848;2023-06-01T12:25:23;18.77;;;11.30;;
20456;SDS011;10387;51.102;6.848;2023-06-01T12:30:46;12.53;;;8.97;;
20456;SDS011;10387;51.102;6.848;2023-06-01T12:35:58;13.37;;;10.03;;
20456;SDS011;10387;51.102;6.848;2023-06-01T12:38:24;11.63;;;8.83;;
20456;SDS011;10387;51.102;6.848;2023-06-01T12:41:10;13.70;;;9.60;;
20456;SDS011;10387;51.102;6.848;2023-06-01T12:43:37;11.73;;;9.33;;
20456;SDS011;10387;51.102;6.848;2023-06-01T12:46:04;14.87;;;8.80;;
20456;SDS011;10387;51.102;6.848;2023-06-01T12:48:34;15.13;;;9.90;;
20456;SDS011;10387;51.102;6.848;2023-06-01T12:51:01;12.00;;;8.83;;
20456;SDS011;10387;51.102;6.848;2023-06-01T12:53:28;12.03;;;9.47;;
20456;SDS011;10387;51.102;6.848;2023-06-01T12:55:54;15.67;;;9.67;;
20456;SDS011;10387;51.102;6.848;2023-06-01T12:58:20;13.60;;;8.53;;
20456;SDS011;10387;51.102;6.848;2023-06-01T13:00:47;11.57;;;8.43;;
20456;SDS011;10387;51.102;6.848;2023-06-01T13:03:14;14.13;;;8.87;;
20456;SDS011;10387;51.102;6.848;2023-06-01T13:05:43;13.33;;;8.87;;
20456;SDS011;10387;51.102;6.848;2023-06-01T13:08:14;13.57;;;8.40;;
20456;SDS011;10387;51.102;6.848;2023-06-01T13:10:44;13.63;;;9.30;;
20456;SDS011;10387;51.102;6.848;2023-06-01T13:13:10;14.50;;;9.40;;
20456;SDS011;10387;51.102;6.848;2023-06-01T13:15:44;10.20;;;8.40;;
20456;SDS011;10387;51.102;6.848;2023-06-01T13:18:13;12.27;;;9.03;;
20456;SDS011;10387;51.102;6.848;2023-06-01T13:20:39;14.33;;;9.70;;
20456;SDS011;10387;51.102;6.848;2023-06-01T13:23:05;13.80;;;10.07;;
20456;SDS011;10387;51.102;6.848;2023-06-01T13:25:32;14.87;;;9.07;;
20456;SDS011;10387;51.102;6.848;2023-06-01T13:27:58;11.97;;;8.27;;
20456;SDS011;10387;51.102;6.848;2023-06-01T13:30:25;10.83;;;8.27;;
20456;SDS011;10387;51.102;6.848;2023-06-01T13:32:52;12.87;;;9.20;;
20456;SDS011;10387;51.102;6.848;2023-06-01T13:35:18;12.73;;;8.83;;
20456;SDS011;10387;51.102;6.848;2023-06-01T13:37:45;14.60;;;9.10;;
20456;SDS011;10387;51.102;6.848;2023-06-01T13:40:11;10.30;;;8.40;;
20456;SDS011;10387;51.102;6.848;2023-06-01T13:42:37;11.40;;;8.37;;
20456;SDS011;10387;51.102;6.848;2023-06-01T13:45:04;10.67;;;7.57;;
20456;SDS011;10387;51.102;6.848;2023-06-01T13:47:30;11.50;;;7.20;;
20456;SDS011;10387;51.102;6.848;2023-06-01T13:49:56;13.07;;;9.53;;
20456;SDS011;10387;51.102;6.848;2023-06-01T13:52:22;14.63;;;10.20;;
20456;SDS011;10387;51.102;6.848;2023-06-01T13:54:51;11.10;;;8.50;;
20456;SDS011;10387;51.102;6.848;2023-06-01T13:57:17;11.10;;;8.23;;
20456;SDS011;10387;51.102;6.848;2023-06-01T13:59:43;11.47;;;8.03;;
20456;SDS011;10387;51.102;6.848;2023-06-01T14:02:09;13.93;;;8.87;;
20456;SDS011;10387;51.102;6.848;2023-06-01T14:04:36;11.77;;;8.97;;
20456;SDS011;10387;51.102;6.848;2023-06-01T14:07:02;13.27;;;9.57;;
20456;SDS011;10387;51.102;6.848;2023-06-01T14:09:28;12.33;;;8.70;;
20456;SDS011;10387;51.102;6.848;2023-06-01T14:11:55;13.40;;;9.17;;
20456;SDS011;10387;51.102;6.848;2023-06-01T14:14:21;15.13;;;10.13;;
20456;SDS011;10387;51.102;6.848;2023-06-01T14:16:47;11.03;;;8.90;;
20456;SDS011;10387;51.102;6.848;2023-06-01T14:19:13;13.17;;;8.93;;
20456;SDS011;10387;51.102;6.848;2023-06-01T14:21:39;14.30;;;9.33;;
20456;SDS011;10387;51.102;6.848;2023-06-01T14:24:05;13.73;;;9.10;;
20456;SDS011;10387;51.102;6.848;2023-06-01T14:26:31;11.50;;;8.47;;
20456;SDS011;10387;51.102;6.848;2023-06-01T14:28:57;11.23;;;8.53;;
20456;SDS011;10387;51.102;6.848;2023-06-01T14:31:25;11.67;;;9.30;;
20456;SDS011;10387;51.102;6.848;2023-06-01T14:33:51;11.10;;;8.57;;
20456;SDS011;10387;51.102;6.848;2023-06-01T14:36:17;9.70;;;8.67;;
20456;SDS011;10387;51.102;6.848;2023-06-01T14:38:45;10.17;;;7.73;;
20456;SDS011;10387;51.102;6.848;2023-06-01T14:41:11;8.73;;;7.83;;
20456;SDS011;10387;51.102;6.848;2023-06-01T14:43:37;12.50;;;8.90;;
20456;SDS011;10387;51.102;6.848;2023-06-01T14:46:04;10.90;;;8.43;;
20456;SDS011;10387;51.102;6.848;2023-06-01T14:48:30;9.33;;;8.37;;
20456;SDS011;10387;51.102;6.848;2023-06-01T14:50:56;11.80;;;8.13;;
20456;SDS011;10387;51.102;6.848;2023-06-01T14:53:22;10.93;;;8.33;;
20456;SDS011;10387;51.102;6.848;2023-06-01T14:55:48;11.37;;;8.10;;
20456;SDS011;10387;51.102;6.848;2023-06-01T14:58:15;10.10;;;7.97;;
20456;SDS011;10387;51.102;6.848;2023-06-01T15:00:41;12.80;;;7.97;;
20456;SDS011;10387;51.102;6.848;2023-06-01T15:03:07;11.43;;;8.13;;
20456;SDS011;10387;51.102;6.848;2023-06-01T15:05:33;11.80;;;8.07;;
20456;SDS011;10387;51.102;6.848;2023-06-01T15:07:59;12.20;;;7.67;;
20456;SDS011;10387;51.102;6.848;2023-06-01T15:10:26;10.27;;;7.80;;